Time;durP1;ratioP1;P1;durP2;ratioP2;P2;SDS_P1;SDS_P2;PMS_P1;PMS_P2;Temp;Humidity;BMP_temperature;BMP_pressure;BME280_temperature;BME280_humidity;BME280_pressure;Samples;Min_cycle;Max_cycle;Signal;HPM_P1;HPM_P2
2021/05/22 00:01:36;;;;;;;6.50;5.90;;;;;;;;;;4975620;28;20883;-66
2021/05/22 00:04:03;;;;;;;7.03;6.00;;;;;;;;;;4976336;28;20455;-65
2021/05/22 00:06:30;;;;;;;7.67;5.97;;;;;;;;;;4975835;28;20459;-67
2021/05/22 00:08:57;;;;;;;7.23;5.93;;;;;;;;;;4976425;28;20495;-70
2021/05/22 00:11:23;;;;;;;7.47;5.87;;;;;;;;;;4974918;28;20475;-66
2021/05/22 00:13:50;;;;;;;7.60;6.13;;;;;;;;;;4976497;28;20451;-67
2021/05/22 00:16:18;;;;;;;8.83;6.17;;;;;;;;;;4975448;28;20466;-69
2021/05/22 00:18:44;;;;;;;6.20;5.67;;;;;;;;;;4976520;28;20454;-69
2021/05/22 00:21:11;;;;;;;6.57;6.00;;;;;;;;;;4975070;28;20480;-65
2021/05/22 00:23:37;;;;;;;6.70;6.13;;;;;;;;;;4975936;28;20459;-66
2021/05/22 00:26:04;;;;;;;8.50;6.53;;;;;;;;;;4974977;28;20455;-66
2021/05/22 00:28:31;;;;;;;6.30;5.70;;;;;;;;;;4976056;28;20499;-66
2021/05/22 00:30:57;;;;;;;6.30;5.70;;;;;;;;;;4975802;28;20514;-65
2021/05/22 00:33:25;;;;;;;6.47;5.97;;;;;;;;;;4974373;28;20837;-65
2021/05/22 00:35:51;;;;;;;6.10;5.53;;;;;;;;;;4975333;28;20537;-65
2021/05/22 00:38:18;;;;;;;6.77;6.17;;;;;;;;;;4975670;28;20457;-69
2021/05/22 00:40:44;;;;;;;6.77;6.17;;;;;;;;;;4975223;28;20482;-65
2021/05/22 00:43:11;;;;;;;6.47;5.97;;;;;;;;;;4975214;28;20542;-69
2021/05/22 00:45:38;;;;;;;8.60;7.00;;;;;;;;;;4974590;28;20812;-68
2021/05/22 00:48:05;;;;;;;6.70;6.10;;;;;;;;;;4975521;28;20458;-68
2021/05/22 00:50:34;;;;;;;7.20;6.70;;;;;;;;;;4975116;28;20998;-68
2021/05/22 00:53:02;;;;;;;8.10;7.40;;;;;;;;;;4975409;28;20486;-72
2021/05/22 00:55:28;;;;;;;6.70;6.00;;;;;;;;;;4974750;28;20813;-70
2021/05/22 00:57:55;;;;;;;7.10;6.43;;;;;;;;;;4975979;28;20518;-68
2021/05/22 01:00:37;;;;;;;7.23;6.70;;;;;;;;;;4974772;28;20475;-68
2021/05/22 01:03:05;;;;;;;6.97;6.37;;;;;;;;;;4974942;28;20454;-68
2021/05/22 01:05:33;;;;;;;6.33;5.73;;;;;;;;;;4974056;28;20467;-69
2021/05/22 01:07:59;;;;;;;7.23;6.57;;;;;;;;;;4974655;28;20455;-66
2021/05/22 01:10:26;;;;;;;7.03;6.33;;;;;;;;;;4973926;28;21062;-65
2021/05/22 01:12:55;;;;;;;6.47;5.87;;;;;;;;;;4975272;28;20969;-66
2021/05/22 01:15:26;;;;;;;5.93;5.53;;;;;;;;;;4973549;28;21006;-64
2021/05/22 01:17:52;;;;;;;6.60;6.00;;;;;;;;;;4974279;28;20483;-65
2021/05/22 01:20:30;;;;;;;9.17;6.13;;;;;;;;;;4974029;28;20474;-66
2021/05/22 01:23:00;;;;;;;7.13;6.00;;;;;;;;;;4974422;28;20817;-66
2021/05/22 01:25:29;;;;;;;5.20;4.73;;;;;;;;;;4974590;28;20466;-65
2021/05/22 01:27:56;;;;;;;5.67;5.13;;;;;;;;;;4974578;28;20994;-65
2021/05/22 01:30:23;;;;;;;6.23;4.77;;;;;;;;;;4974306;28;20493;-65
2021/05/22 01:32:49;;;;;;;5.00;4.50;;;;;;;;;;4974724;28;20521;-65
2021/05/22 01:35:17;;;;;;;7.37;4.63;;;;;;;;;;4974319;28;20447;-66
2021/05/22 01:37:44;;;;;;;6.30;4.40;;;;;;;;;;4974714;28;20452;-66
2021/05/22 01:40:11;;;;;;;6.43;4.20;;;;;;;;;;4973464;28;20799;-66
2021/05/22 01:42:38;;;;;;;4.37;4.03;;;;;;;;;;4974189;28;20962;-65
2021/05/22 01:45:07;;;;;;;3.73;3.43;;;;;;;;;;4971859;28;20463;-65
2021/05/22 01:47:35;;;;;;;4.50;4.00;;;;;;;;;;4974249;28;20462;-65
2021/05/22 01:50:04;;;;;;;4.33;3.50;;;;;;;;;;4974740;28;20483;-66
2021/05/22 01:52:32;;;;;;;5.50;3.73;;;;;;;;;;4974216;28;20959;-65
2021/05/22 01:54:59;;;;;;;5.10;3.93;;;;;;;;;;4973837;28;20509;-66
2021/05/22 01:57:26;;;;;;;7.13;3.67;;;;;;;;;;4973959;28;20462;-65
2021/05/22 01:59:54;;;;;;;6.40;3.70;;;;;;;;;;4974217;28;20454;-65
2021/05/22 02:02:21;;;;;;;4.63;3.57;;;;;;;;;;4974205;28;20486;-65
2021/05/22 02:04:48;;;;;;;3.67;3.37;;;;;;;;;;4974272;28;20462;-64
2021/05/22 02:07:17;;;;;;;6.63;3.73;;;;;;;;;;4973577;28;20954;-66
2021/05/22 02:09:45;;;;;;;5.03;3.80;;;;;;;;;;4974581;28;20487;-66
2021/05/22 02:12:12;;;;;;;6.63;4.20;;;;;;;;;;4974659;28;20509;-66
2021/05/22 02:14:41;;;;;;;5.27;4.10;;;;;;;;;;4973061;28;20463;-65
2021/05/22 02:17:10;;;;;;;4.13;3.50;;;;;;;;;;4954526;29;20862;-65
2021/05/22 02:19:38;;;;;;;4.63;4.23;;;;;;;;;;4961929;28;20490;-65
2021/05/22 02:22:06;;;;;;;8.20;4.23;;;;;;;;;;4973605;28;20475;-66
2021/05/22 02:24:33;;;;;;;5.63;5.03;;;;;;;;;;4973725;28;20455;-66
2021/05/22 02:27:02;;;;;;;9.90;4.70;;;;;;;;;;4973477;28;20458;-65
2021/05/22 02:29:29;;;;;;;5.03;4.63;;;;;;;;;;4973023;28;20489;-65
2021/05/22 02:31:58;;;;;;;10.00;4.53;;;;;;;;;;4973368;28;20475;-66
2021/05/22 02:34:27;;;;;;;6.67;4.97;;;;;;;;;;4973237;28;20447;-65
2021/05/22 02:36:55;;;;;;;5.63;4.00;;;;;;;;;;4973127;28;20460;-65
2021/05/22 02:39:22;;;;;;;6.23;4.37;;;;;;;;;;4972914;28;20822;-65
2021/05/22 02:41:50;;;;;;;5.33;4.30;;;;;;;;;;4972760;28;20498;-64
2021/05/22 02:44:17;;;;;;;6.77;4.40;;;;;;;;;;4973523;28;20455;-65
2021/05/22 02:46:46;;;;;;;5.90;4.50;;;;;;;;;;4972501;28;20447;-65
2021/05/22 02:49:16;;;;;;;8.60;4.40;;;;;;;;;;4973315;28;20523;-64
2021/05/22 02:51:44;;;;;;;6.50;4.67;;;;;;;;;;4972496;28;20551;-65
2021/05/22 02:54:10;;;;;;;4.77;4.37;;;;;;;;;;4973162;28;20456;-64
2021/05/22 02:56:37;;;;;;;6.03;4.40;;;;;;;;;;4972429;28;20455;-65
2021/05/22 02:59:05;;;;;;;6.97;4.80;;;;;;;;;;4973465;28;20447;-65
2021/05/22 03:01:32;;;;;;;4.97;4.30;;;;;;;;;;4971942;28;21025;-66
2021/05/22 03:04:00;;;;;;;4.57;4.17;;;;;;;;;;4973371;28;20455;-66
2021/05/22 03:06:27;;;;;;;6.63;4.30;;;;;;;;;;4972561;28;20478;-66
2021/05/22 03:08:54;;;;;;;5.27;4.67;;;;;;;;;;4973047;28;20489;-65
2021/05/22 03:11:22;;;;;;;4.27;3.87;;;;;;;;;;4972888;28;20518;-65
2021/05/22 03:13:49;;;;;;;6.50;4.00;;;;;;;;;;4973288;28;20452;-65
2021/05/22 03:16:16;;;;;;;7.23;4.17;;;;;;;;;;4971686;28;20450;-65
2021/05/22 03:18:43;;;;;;;6.87;4.60;;;;;;;;;;4972714;28;20455;-65
2021/05/22 03:21:11;;;;;;;5.10;4.10;;;;;;;;;;4972633;28;20485;-65
2021/05/22 03:23:38;;;;;;;5.57;4.40;;;;;;;;;;4972234;28;20821;-65
2021/05/22 03:26:05;;;;;;;7.03;4.20;;;;;;;;;;4972213;28;20454;-65
2021/05/22 03:28:32;;;;;;;7.50;4.07;;;;;;;;;;4972960;28;20498;-65
2021/05/22 03:30:59;;;;;;;5.40;4.50;;;;;;;;;;4972074;28;20823;-65
2021/05/22 03:33:26;;;;;;;5.20;4.30;;;;;;;;;;4973091;28;20462;-64
2021/05/22 03:35:52;;;;;;;6.17;4.40;;;;;;;;;;4972311;28;20461;-64
2021/05/22 03:38:19;;;;;;;8.13;4.70;;;;;;;;;;4973540;28;20550;-65
2021/05/22 03:40:46;;;;;;;4.97;4.47;;;;;;;;;;4972197;28;20537;-64
2021/05/22 03:43:14;;;;;;;4.67;4.13;;;;;;;;;;4972514;28;20455;-64
2021/05/22 03:45:40;;;;;;;5.10;4.63;;;;;;;;;;4971909;28;20853;-64
2021/05/22 03:48:07;;;;;;;5.30;3.77;;;;;;;;;;4972572;28;20458;-65
2021/05/22 03:50:34;;;;;;;7.43;4.40;;;;;;;;;;4972001;28;20502;-65
2021/05/22 03:53:01;;;;;;;4.50;4.10;;;;;;;;;;4972673;28;20448;-65
2021/05/22 03:55:27;;;;;;;5.83;4.30;;;;;;;;;;4971964;28;20525;-64
2021/05/22 03:57:54;;;;;;;6.90;4.90;;;;;;;;;;4973045;28;20454;-63
2021/05/22 04:00:22;;;;;;;5.73;4.60;;;;;;;;;;4971654;28;20849;-65
2021/05/22 04:02:49;;;;;;;6.73;4.40;;;;;;;;;;4972437;28;20471;-65
2021/05/22 04:05:15;;;;;;;4.50;4.10;;;;;;;;;;4972100;28;20510;-64
2021/05/22 04:07:42;;;;;;;5.23;4.40;;;;;;;;;;4972307;28;20447;-70
2021/05/22 04:10:09;;;;;;;6.20;4.73;;;;;;;;;;4971516;28;20509;-70
2021/05/22 04:12:36;;;;;;;4.80;4.50;;;;;;;;;;4972540;28;20455;-70
2021/05/22 04:15:03;;;;;;;5.57;4.67;;;;;;;;;;4972359;28;20459;-71
2021/05/22 04:17:30;;;;;;;6.03;4.70;;;;;;;;;;4972412;28;20498;-71
2021/05/22 04:19:57;;;;;;;5.13;4.73;;;;;;;;;;4971569;28;20444;-66
2021/05/22 04:22:23;;;;;;;5.10;4.70;;;;;;;;;;4972532;28;20447;-69
2021/05/22 04:24:50;;;;;;;5.20;4.77;;;;;;;;;;4972006;28;20456;-66
2021/05/22 04:27:16;;;;;;;4.60;4.20;;;;;;;;;;4972137;28;20465;-65
2021/05/22 04:29:43;;;;;;;5.57;5.00;;;;;;;;;;4971886;28;20825;-72
2021/05/22 04:32:10;;;;;;;5.67;4.33;;;;;;;;;;4971663;28;20568;-71
2021/05/22 04:34:37;;;;;;;5.07;4.57;;;;;;;;;;4972565;28;20455;-71
2021/05/22 04:37:04;;;;;;;5.20;4.77;;;;;;;;;;4971658;28;20456;-65
2021/05/22 04:39:30;;;;;;;4.53;4.13;;;;;;;;;;4974152;28;20453;-66
2021/05/22 04:41:57;;;;;;;7.13;4.10;;;;;;;;;;4974829;28;20510;-66
2021/05/22 04:44:24;;;;;;;4.57;4.10;;;;;;;;;;4975365;28;20494;-66
2021/05/22 04:46:50;;;;;;;4.43;3.90;;;;;;;;;;4975154;28;20825;-65
2021/05/22 04:49:17;;;;;;;5.50;4.30;;;;;;;;;;4975526;28;20487;-67
2021/05/22 04:51:45;;;;;;;5.00;4.20;;;;;;;;;;4975097;28;20478;-65
2021/05/22 04:54:12;;;;;;;4.67;4.27;;;;;;;;;;4974822;28;20498;-64
2021/05/22 04:56:39;;;;;;;3.87;3.57;;;;;;;;;;4975824;28;20852;-64
2021/05/22 04:59:05;;;;;;;4.47;4.07;;;;;;;;;;4974745;28;20467;-64
2021/05/22 05:01:32;;;;;;;4.30;3.90;;;;;;;;;;4975283;28;20483;-64
2021/05/22 05:03:58;;;;;;;4.00;3.53;;;;;;;;;;4974702;28;20459;-64
2021/05/22 05:06:26;;;;;;;5.80;3.87;;;;;;;;;;4974598;28;20981;-65
2021/05/22 05:08:54;;;;;;;3.80;3.50;;;;;;;;;;4974374;28;20487;-65
2021/05/22 05:11:20;;;;;;;9.10;4.30;;;;;;;;;;4974619;28;20475;-64
2021/05/22 05:13:48;;;;;;;5.30;3.80;;;;;;;;;;4974898;28;20452;-64
2021/05/22 05:16:15;;;;;;;3.90;3.60;;;;;;;;;;4974980;28;20542;-64
2021/05/22 05:18:41;;;;;;;3.73;3.37;;;;;;;;;;4974447;28;20470;-64
2021/05/22 05:21:08;;;;;;;3.77;3.37;;;;;;;;;;4974882;28;20990;-63
2021/05/22 05:23:35;;;;;;;6.03;3.50;;;;;;;;;;4975110;28;20455;-64
2021/05/22 05:26:03;;;;;;;3.20;2.90;;;;;;;;;;4974854;28;20458;-64
2021/05/22 05:28:30;;;;;;;5.93;4.07;;;;;;;;;;4974447;28;20502;-65
2021/05/22 05:30:57;;;;;;;4.40;2.83;;;;;;;;;;4974141;28;20476;-65
2021/05/22 05:33:23;;;;;;;5.63;3.07;;;;;;;;;;4975224;28;20461;-66
2021/05/22 05:35:50;;;;;;;5.63;3.10;;;;;;;;;;4974336;28;20456;-65
2021/05/22 05:38:17;;;;;;;4.57;2.97;;;;;;;;;;4974954;28;20447;-64
2021/05/22 05:40:43;;;;;;;2.87;2.47;;;;;;;;;;4974429;28;20489;-65
2021/05/22 05:43:13;;;;;;;3.50;2.40;;;;;;;;;;4991471;23;20471;-64
2021/05/22 05:45:40;;;;;;;6.70;2.20;;;;;;;;;;5017198;28;21029;-63
2021/05/22 05:48:07;;;;;;;6.83;2.43;;;;;;;;;;5013349;28;20837;-66
2021/05/22 05:50:34;;;;;;;5.57;2.60;;;;;;;;;;5023383;28;20523;-64
2021/05/22 05:53:01;;;;;;;5.87;2.10;;;;;;;;;;5013298;28;20500;-65
2021/05/22 05:55:28;;;;;;;5.77;1.97;;;;;;;;;;5002611;28;20447;-64
2021/05/22 05:57:56;;;;;;;2.60;1.70;;;;;;;;;;4993682;28;20461;-64
2021/05/22 06:00:23;;;;;;;1.27;1.17;;;;;;;;;;5012834;28;20886;-64
2021/05/22 06:02:50;;;;;;;2.97;1.40;;;;;;;;;;5011207;28;20446;-64
2021/05/22 06:05:17;;;;;;;2.90;1.20;;;;;;;;;;5012872;28;20457;-64
2021/05/22 06:07:44;;;;;;;2.63;1.27;;;;;;;;;;5013245;28;20450;-64
2021/05/22 06:10:11;;;;;;;3.20;1.30;;;;;;;;;;5010586;28;20485;-64
2021/05/22 06:12:39;;;;;;;3.60;1.43;;;;;;;;;;5013657;28;20446;-64
2021/05/22 06:15:09;;;;;;;4.27;1.40;;;;;;;;;;5011924;28;21126;-65
2021/05/22 06:17:37;;;;;;;2.07;1.10;;;;;;;;;;5013606;28;20449;-64
2021/05/22 06:20:04;;;;;;;3.00;1.63;;;;;;;;;;5011470;28;20454;-65
2021/05/22 06:22:30;;;;;;;4.60;1.60;;;;;;;;;;5013035;28;20449;-64
2021/05/22 06:24:57;;;;;;;3.47;1.10;;;;;;;;;;5012040;28;20473;-64
2021/05/22 06:27:24;;;;;;;2.07;1.17;;;;;;;;;;5012712;28;20446;-64
2021/05/22 06:29:50;;;;;;;3.77;1.50;;;;;;;;;;4998042;28;20486;-64
2021/05/22 06:32:17;;;;;;;4.67;1.53;;;;;;;;;;4993333;28;20473;-64
2021/05/22 06:34:44;;;;;;;3.20;1.40;;;;;;;;;;4994023;28;20490;-64
2021/05/22 06:37:11;;;;;;;3.77;1.77;;;;;;;;;;5008875;28;20460;-64
2021/05/22 06:39:38;;;;;;;2.70;1.43;;;;;;;;;;4999151;28;20954;-66
2021/05/22 06:42:04;;;;;;;2.10;1.13;;;;;;;;;;4993935;28;20465;-64
2021/05/22 06:44:35;;;;;;;2.17;1.50;;;;;;;;;;5004729;28;20500;-65
2021/05/22 06:47:01;;;;;;;3.30;1.33;;;;;;;;;;5009437;28;20454;-64
2021/05/22 06:49:31;;;;;;;2.33;1.17;;;;;;;;;;5012381;28;20497;-66
2021/05/22 06:51:59;;;;;;;2.10;1.43;;;;;;;;;;5012136;28;20556;-64
2021/05/22 06:54:28;;;;;;;3.97;1.60;;;;;;;;;;5000061;28;20474;-63
2021/05/22 06:56:55;;;;;;;3.10;1.60;;;;;;;;;;5003816;28;20462;-65
2021/05/22 06:59:21;;;;;;;4.00;1.53;;;;;;;;;;4992130;28;20948;-64
2021/05/22 07:01:48;;;;;;;8.10;1.93;;;;;;;;;;4992105;28;20458;-64
2021/05/22 07:04:15;;;;;;;2.17;1.20;;;;;;;;;;4992496;28;20478;-64
2021/05/22 07:06:41;;;;;;;2.20;1.03;;;;;;;;;;4993002;28;20500;-64
2021/05/22 07:09:09;;;;;;;2.33;1.43;;;;;;;;;;5005626;28;20851;-64
2021/05/22 07:11:35;;;;;;;2.57;1.50;;;;;;;;;;5012109;28;20461;-65
2021/05/22 07:14:02;;;;;;;3.30;1.50;;;;;;;;;;5007822;28;20477;-64
2021/05/22 07:16:29;;;;;;;3.27;1.27;;;;;;;;;;5004399;28;20826;-66
2021/05/22 07:18:55;;;;;;;2.30;1.37;;;;;;;;;;4992684;28;20447;-65
2021/05/22 07:21:22;;;;;;;3.23;1.40;;;;;;;;;;5005765;28;20480;-64
2021/05/22 07:23:49;;;;;;;2.53;1.17;;;;;;;;;;4992441;28;20470;-64
2021/05/22 07:26:16;;;;;;;3.33;1.07;;;;;;;;;;4992337;28;20455;-65
2021/05/22 07:28:43;;;;;;;2.03;1.40;;;;;;;;;;4992411;28;20566;-64
2021/05/22 07:31:09;;;;;;;2.07;1.00;;;;;;;;;;4992244;28;20965;-65
2021/05/22 07:33:41;;;;;;;2.40;1.00;;;;;;;;;;4992513;28;20475;-65
2021/05/22 07:36:08;;;;;;;5.50;2.00;;;;;;;;;;4992547;28;20455;-64
2021/05/22 07:38:35;;;;;;;5.57;2.00;;;;;;;;;;4992225;28;20451;-63
2021/05/22 07:41:02;;;;;;;5.67;1.60;;;;;;;;;;5007082;28;20488;-64
2021/05/22 07:43:29;;;;;;;6.03;1.50;;;;;;;;;;5008200;28;20483;-63
2021/05/22 07:45:57;;;;;;;4.53;1.93;;;;;;;;;;5010855;28;20460;-63
2021/05/22 07:48:24;;;;;;;3.00;1.60;;;;;;;;;;5010674;28;20465;-63
2021/05/22 07:50:52;;;;;;;4.40;1.50;;;;;;;;;;4999364;28;20547;-63
2021/05/22 07:53:19;;;;;;;5.10;2.03;;;;;;;;;;4995223;28;20481;-63
2021/05/22 07:55:46;;;;;;;3.00;1.80;;;;;;;;;;5001996;28;20446;-64
2021/05/22 07:58:15;;;;;;;3.17;1.80;;;;;;;;;;4997787;28;20530;-63
2021/05/22 08:00:43;;;;;;;4.80;1.80;;;;;;;;;;5011658;28;20901;-62
2021/05/22 08:03:09;;;;;;;4.43;1.30;;;;;;;;;;4996784;28;20851;-64
2021/05/22 08:05:36;;;;;;;4.40;1.90;;;;;;;;;;5010365;28;20461;-64
2021/05/22 08:08:03;;;;;;;2.30;1.17;;;;;;;;;;5011733;28;20492;-64
2021/05/22 08:10:29;;;;;;;2.60;1.23;;;;;;;;;;5009479;28;20477;-64
2021/05/22 08:12:56;;;;;;;2.80;1.57;;;;;;;;;;5008779;28;20477;-65
2021/05/22 08:15:23;;;;;;;3.17;1.33;;;;;;;;;;4995807;28;20573;-64
2021/05/22 08:17:51;;;;;;;2.90;1.30;;;;;;;;;;4996434;28;20450;-64
2021/05/22 08:20:18;;;;;;;3.07;1.20;;;;;;;;;;4995808;28;20443;-63
2021/05/22 08:22:45;;;;;;;1.60;0.90;;;;;;;;;;4996206;28;21024;-65
2021/05/22 08:25:12;;;;;;;4.67;1.50;;;;;;;;;;5016116;28;20500;-64
2021/05/22 08:27:41;;;;;;;3.17;1.17;;;;;;;;;;5010614;28;20477;-64
2021/05/22 08:30:08;;;;;;;2.23;1.20;;;;;;;;;;4996023;28;20485;-65
2021/05/22 08:32:35;;;;;;;1.97;1.10;;;;;;;;;;4999654;28;20507;-64
2021/05/22 08:35:02;;;;;;;4.70;1.33;;;;;;;;;;5010938;28;20906;-66
2021/05/22 08:37:29;;;;;;;3.60;1.27;;;;;;;;;;5007174;28;20456;-64
2021/05/22 08:39:55;;;;;;;3.97;1.60;;;;;;;;;;5018284;28;20446;-65
2021/05/22 08:42:23;;;;;;;2.20;1.30;;;;;;;;;;5011561;28;20833;-63
2021/05/22 08:44:50;;;;;;;3.10;1.27;;;;;;;;;;4994001;28;20901;-64
2021/05/22 08:47:17;;;;;;;2.50;1.13;;;;;;;;;;4993365;28;20472;-66
2021/05/22 08:49:44;;;;;;;2.07;1.20;;;;;;;;;;5000970;28;20846;-63
2021/05/22 08:52:12;;;;;;;2.90;1.07;;;;;;;;;;5013218;28;20944;-63
2021/05/22 08:54:39;;;;;;;2.60;1.40;;;;;;;;;;4998182;28;20481;-63
2021/05/22 08:57:06;;;;;;;3.10;1.93;;;;;;;;;;5013889;28;20449;-67
2021/05/22 08:59:37;;;;;;;2.33;1.33;;;;;;;;;;5009844;28;20964;-65
2021/05/22 09:02:04;;;;;;;2.73;1.30;;;;;;;;;;5007096;28;20442;-63
2021/05/22 09:04:31;;;;;;;2.80;1.10;;;;;;;;;;4994132;28;20475;-63
2021/05/22 09:07:01;;;;;;;2.47;1.23;;;;;;;;;;4993959;28;20504;-66
2021/05/22 09:09:42;;;;;;;2.43;1.10;;;;;;;;;;4993557;28;20490;-65
2021/05/22 09:12:09;;;;;;;2.13;1.23;;;;;;;;;;4996437;28;20455;-65
2021/05/22 09:14:39;;;;;;;4.10;1.03;;;;;;;;;;5003248;28;20480;-65
2021/05/22 09:17:06;;;;;;;2.37;1.30;;;;;;;;;;5012113;28;20453;-64
2021/05/22 09:19:33;;;;;;;2.87;1.30;;;;;;;;;;5009318;28;20450;-65
2021/05/22 09:22:11;;;;;;;2.90;1.40;;;;;;;;;;5012840;28;20980;-67
2021/05/22 09:24:54;;;;;;;3.07;1.10;;;;;;;;;;5009459;28;20850;-67
2021/05/22 09:27:21;;;;;;;2.90;1.40;;;;;;;;;;5004071;28;20454;-63
2021/05/22 09:29:49;;;;;;;2.77;1.63;;;;;;;;;;5003249;28;20490;-63
2021/05/22 09:32:16;;;;;;;4.10;1.33;;;;;;;;;;5005999;28;20835;-64
2021/05/22 09:34:42;;;;;;;3.23;1.67;;;;;;;;;;5008644;28;20477;-66
2021/05/22 09:37:12;;;;;;;1.47;1.03;;;;;;;;;;4997741;28;21003;-65
2021/05/22 09:39:46;;;;;;;1.60;1.10;;;;;;;;;;5013131;28;20457;-65
2021/05/22 09:42:13;;;;;;;3.00;1.50;;;;;;;;;;5012270;28;20445;-65
2021/05/22 09:44:40;;;;;;;4.63;1.30;;;;;;;;;;5011385;28;21069;-65
2021/05/22 09:47:07;;;;;;;2.07;1.40;;;;;;;;;;5007248;28;20461;-64
2021/05/22 09:49:35;;;;;;;1.93;1.37;;;;;;;;;;4999499;28;20485;-65
2021/05/22 09:52:02;;;;;;;1.73;1.20;;;;;;;;;;4992972;28;20980;-66
2021/05/22 09:54:42;;;;;;;3.10;1.73;;;;;;;;;;4995346;28;20501;-66
2021/05/22 09:57:09;;;;;;;2.00;1.10;;;;;;;;;;4993252;28;20454;-65
2021/05/22 09:59:36;;;;;;;3.43;1.40;;;;;;;;;;4994724;28;20446;-65
2021/05/22 10:02:03;;;;;;;2.57;1.30;;;;;;;;;;5001216;28;20450;-66
2021/05/22 10:04:30;;;;;;;3.43;1.30;;;;;;;;;;5006514;28;20552;-65
2021/05/22 10:06:57;;;;;;;4.50;1.50;;;;;;;;;;5012234;28;20454;-65
2021/05/22 10:09:24;;;;;;;3.57;1.30;;;;;;;;;;5004786;28;20486;-66
2021/05/22 10:12:01;;;;;;;1.90;1.13;;;;;;;;;;4999491;28;20459;-67
2021/05/22 10:14:28;;;;;;;3.13;1.63;;;;;;;;;;5001326;28;20473;-65
2021/05/22 10:16:56;;;;;;;2.20;1.10;;;;;;;;;;5003144;28;20958;-63
2021/05/22 10:19:22;;;;;;;3.60;2.53;;;;;;;;;;4992605;28;20465;-64
2021/05/22 10:21:49;;;;;;;4.23;3.30;;;;;;;;;;4991984;28;20450;-63
2021/05/22 10:24:16;;;;;;;5.57;3.80;;;;;;;;;;4993050;28;20540;-67
2021/05/22 10:26:43;;;;;;;5.67;3.87;;;;;;;;;;5001805;28;20492;-64
2021/05/22 10:29:10;;;;;;;5.30;3.77;;;;;;;;;;5011893;28;20453;-66
2021/05/22 10:31:40;;;;;;;4.30;3.90;;;;;;;;;;5002553;28;20887;-64
2021/05/22 10:34:15;;;;;;;5.40;4.30;;;;;;;;;;5012087;28;20528;-65
2021/05/22 10:36:51;;;;;;;4.07;3.77;;;;;;;;;;5004846;28;20468;-65
2021/05/22 10:39:39;;;;;;;4.60;4.20;;;;;;;;;;5010910;28;20441;-66
2021/05/22 10:42:06;;;;;;;4.70;4.30;;;;;;;;;;5002991;28;20455;-63
2021/05/22 10:44:34;;;;;;;4.33;3.93;;;;;;;;;;4992035;28;20486;-63
2021/05/22 10:47:05;;;;;;;4.30;3.90;;;;;;;;;;5006270;28;20450;-63
2021/05/22 10:49:59;;;;;;;4.07;3.77;;;;;;;;;;4993255;28;20479;-66
2021/05/22 10:52:27;;;;;;;3.93;3.63;;;;;;;;;;4956992;28;20490;-63
2021/05/22 10:54:57;;;;;;;4.97;3.70;;;;;;;;;;4995460;28;20568;-65
2021/05/22 10:57:24;;;;;;;4.90;4.50;;;;;;;;;;5009729;28;20446;-63
2021/05/22 11:00:09;;;;;;;5.47;4.80;;;;;;;;;;5000966;28;20942;-64
2021/05/22 11:02:37;;;;;;;5.00;4.60;;;;;;;;;;5004238;28;20501;-64
2021/05/22 11:05:22;;;;;;;4.70;4.40;;;;;;;;;;4999600;28;20577;-64
2021/05/22 11:07:49;;;;;;;5.07;4.57;;;;;;;;;;4991783;28;20449;-66
2021/05/22 11:10:35;;;;;;;5.80;5.20;;;;;;;;;;4995569;28;20478;-64
2021/05/22 11:13:01;;;;;;;4.83;4.53;;;;;;;;;;4995715;28;20462;-64
2021/05/22 11:15:47;;;;;;;5.40;5.00;;;;;;;;;;5010742;28;20544;-64
2021/05/22 11:18:18;;;;;;;5.07;4.67;;;;;;;;;;5008790;28;20457;-68
2021/05/22 11:21:05;;;;;;;5.43;5.03;;;;;;;;;;4991697;28;20446;-63
2021/05/22 11:23:46;;;;;;;5.23;4.77;;;;;;;;;;4997902;28;20482;-64
2021/05/22 11:26:14;;;;;;;5.40;4.93;;;;;;;;;;5010171;28;20829;-65
2021/05/22 11:28:52;;;;;;;5.40;5.03;;;;;;;;;;5007836;28;20462;-64
2021/05/22 11:31:32;;;;;;;6.80;4.90;;;;;;;;;;4995460;28;21012;-66
2021/05/22 11:34:26;;;;;;;7.37;4.90;;;;;;;;;;4991558;28;20477;-63
2021/05/22 11:37:07;;;;;;;5.87;5.40;;;;;;;;;;5001556;28;20450;-63
2021/05/22 11:39:37;;;;;;;5.27;4.77;;;;;;;;;;4993261;28;20896;-66
2021/05/22 11:42:19;;;;;;;5.70;5.20;;;;;;;;;;5008720;28;20456;-63
2021/05/22 11:44:53;;;;;;;6.70;4.70;;;;;;;;;;5009898;28;20481;-65
2021/05/22 11:47:20;;;;;;;5.10;4.63;;;;;;;;;;4994488;28;20450;-65
2021/05/22 11:49:47;;;;;;;4.73;4.30;;;;;;;;;;5004803;23;22097;-63
2021/05/22 11:52:26;;;;;;;6.00;4.33;;;;;;;;;;4973045;28;20509;-64
2021/05/22 11:54:53;;;;;;;5.27;4.80;;;;;;;;;;4974903;28;20439;-64
2021/05/22 11:57:19;;;;;;;7.73;4.90;;;;;;;;;;4975248;28;20451;-63
2021/05/22 11:59:46;;;;;;;4.97;4.67;;;;;;;;;;4975824;28;20537;-64
2021/05/22 12:02:13;;;;;;;5.53;5.13;;;;;;;;;;4975841;28;20969;-64
2021/05/22 12:04:49;;;;;;;9.67;5.00;;;;;;;;;;4975669;28;20458;-64
2021/05/22 12:07:16;;;;;;;5.50;5.10;;;;;;;;;;4975950;28;20451;-64
2021/05/22 12:09:43;;;;;;;5.70;5.20;;;;;;;;;;4976118;28;20578;-64
2021/05/22 12:12:12;;;;;;;5.47;4.97;;;;;;;;;;4975203;28;20958;-64
2021/05/22 12:14:39;;;;;;;6.03;5.57;;;;;;;;;;4975298;28;20483;-64
2021/05/22 12:17:07;;;;;;;5.57;5.27;;;;;;;;;;4974775;28;20517;-64
2021/05/22 12:19:35;;;;;;;5.70;4.83;;;;;;;;;;4975252;28;20479;-65
2021/05/22 12:22:02;;;;;;;5.67;5.30;;;;;;;;;;4973549;28;20471;-65
2021/05/22 12:24:29;;;;;;;5.43;5.03;;;;;;;;;;4974185;28;20460;-64
2021/05/22 12:26:56;;;;;;;5.40;4.90;;;;;;;;;;4974441;28;20951;-64
2021/05/22 12:29:23;;;;;;;5.30;4.90;;;;;;;;;;4975106;28;20479;-64
2021/05/22 12:31:51;;;;;;;5.80;5.20;;;;;;;;;;4974639;28;20491;-75
2021/05/22 12:34:23;;;;;;;5.10;4.80;;;;;;;;;;4975619;28;20903;-66
2021/05/22 12:36:59;;;;;;;5.47;5.07;;;;;;;;;;4974976;28;20456;-65
2021/05/22 12:39:30;;;;;;;6.10;5.50;;;;;;;;;;4975396;28;20475;-69
2021/05/22 12:41:57;;;;;;;5.10;4.83;;;;;;;;;;4977396;28;20447;-67
2021/05/22 12:44:24;;;;;;;6.03;5.60;;;;;;;;;;4975682;28;20467;-64
2021/05/22 12:46:58;;;;;;;5.60;5.27;;;;;;;;;;4976870;28;20451;-64
2021/05/22 12:49:31;;;;;;;5.40;5.10;;;;;;;;;;4992490;28;20482;-64
2021/05/22 12:52:03;;;;;;;5.43;5.10;;;;;;;;;;4967552;28;20512;-64
2021/05/22 12:54:30;;;;;;;5.40;5.10;;;;;;;;;;4975423;28;20483;-64
2021/05/22 12:56:58;;;;;;;5.47;5.17;;;;;;;;;;4974699;28;20448;-65
2021/05/22 12:59:25;;;;;;;6.23;5.83;;;;;;;;;;4972930;28;20479;-65
2021/05/22 13:02:06;;;;;;;5.70;5.40;;;;;;;;;;4978508;28;20452;-64
2021/05/22 13:04:33;;;;;;;5.27;4.97;;;;;;;;;;4983967;28;20492;-65
2021/05/22 13:06:59;;;;;;;5.37;4.97;;;;;;;;;;4990035;28;20448;-65
2021/05/22 13:09:27;;;;;;;5.57;5.27;;;;;;;;;;4974597;28;20538;-65
2021/05/22 13:11:57;;;;;;;5.87;5.47;;;;;;;;;;4975354;28;20455;-64
2021/05/22 13:14:24;;;;;;;6.30;5.70;;;;;;;;;;4974641;28;20832;-64
2021/05/22 13:16:56;;;;;;;5.77;5.47;;;;;;;;;;4974523;28;20454;-65
2021/05/22 13:19:38;;;;;;;6.10;5.80;;;;;;;;;;4974491;28;20860;-65
2021/05/22 13:22:19;;;;;;;6.33;5.93;;;;;;;;;;4975003;28;20447;-65
2021/05/22 13:24:58;;;;;;;6.40;5.90;;;;;;;;;;4974692;28;20910;-65
2021/05/22 13:27:25;;;;;;;6.30;5.90;;;;;;;;;;4974391;28;20447;-65
2021/05/22 13:29:55;;;;;;;6.60;6.20;;;;;;;;;;4974814;28;20537;-65
2021/05/22 13:32:21;;;;;;;6.30;6.00;;;;;;;;;;4975055;28;20436;-65
2021/05/22 13:34:49;;;;;;;7.10;6.70;;;;;;;;;;4975109;28;20943;-65
2021/05/22 13:37:16;;;;;;;6.90;6.50;;;;;;;;;;4974932;28;20490;-65
2021/05/22 13:39:43;;;;;;;7.00;6.60;;;;;;;;;;4975233;28;20983;-65
2021/05/22 13:42:11;;;;;;;7.60;7.00;;;;;;;;;;4975265;28;20485;-66
2021/05/22 13:44:38;;;;;;;8.40;7.90;;;;;;;;;;4975361;28;20448;-65
2021/05/22 13:47:05;;;;;;;7.37;6.90;;;;;;;;;;4974746;28;20474;-65
2021/05/22 13:49:31;;;;;;;7.30;6.80;;;;;;;;;;4976120;28;20550;-65
2021/05/22 13:51:58;;;;;;;7.30;6.90;;;;;;;;;;4974634;28;20455;-65
2021/05/22 13:54:24;;;;;;;7.27;6.87;;;;;;;;;;4974764;28;20451;-65
2021/05/22 13:56:51;;;;;;;7.67;7.13;;;;;;;;;;4974353;28;20473;-65
2021/05/22 13:59:18;;;;;;;7.70;7.20;;;;;;;;;;4974621;28;20471;-65
2021/05/22 14:01:45;;;;;;;8.13;7.47;;;;;;;;;;4974410;28;20451;-65
2021/05/22 14:04:12;;;;;;;7.57;7.17;;;;;;;;;;4974191;28;20478;-66
2021/05/22 14:06:38;;;;;;;7.87;7.47;;;;;;;;;;4974409;28;20459;-66
2021/05/22 14:09:07;;;;;;;7.70;7.20;;;;;;;;;;4974388;28;20475;-64
2021/05/22 14:11:33;;;;;;;7.50;6.80;;;;;;;;;;4974188;28;20919;-65
2021/05/22 14:14:00;;;;;;;7.40;7.00;;;;;;;;;;4974472;28;20513;-65
2021/05/22 14:16:27;;;;;;;7.47;6.97;;;;;;;;;;4973751;28;20981;-65
2021/05/22 14:18:54;;;;;;;7.50;7.00;;;;;;;;;;4973834;28;20494;-65
2021/05/22 14:21:21;;;;;;;7.07;6.67;;;;;;;;;;4974423;28;20458;-65
2021/05/22 14:23:47;;;;;;;6.80;6.50;;;;;;;;;;4974177;28;20478;-65
2021/05/22 14:26:15;;;;;;;7.10;6.70;;;;;;;;;;4974051;28;20989;-65
2021/05/22 14:28:44;;;;;;;6.63;6.33;;;;;;;;;;4974065;28;20543;-65
2021/05/22 14:31:11;;;;;;;6.40;6.10;;;;;;;;;;4973639;28;20487;-68
2021/05/22 14:33:38;;;;;;;7.20;6.67;;;;;;;;;;4974316;28;20447;-64
2021/05/22 14:36:05;;;;;;;7.00;6.50;;;;;;;;;;4973573;28;20459;-65
2021/05/22 14:38:32;;;;;;;6.37;6.07;;;;;;;;;;4974245;28;20454;-65
2021/05/22 14:40:59;;;;;;;6.03;5.83;;;;;;;;;;4973978;28;20447;-65
2021/05/22 14:43:26;;;;;;;7.13;6.63;;;;;;;;;;4973625;28;20831;-65
2021/05/22 14:45:53;;;;;;;6.40;6.10;;;;;;;;;;4973540;28;20454;-65
2021/05/22 14:48:21;;;;;;;5.80;5.53;;;;;;;;;;4982611;28;20454;-65
2021/05/22 14:50:49;;;;;;;6.70;6.30;;;;;;;;;;4982050;28;20487;-67